Lincoln, Rhode Island
Current Conditions -  °F | °C
As of 12:53 PM on Thursday 18 Dec 2014 (Local Time) from KUUU Reporting Station
Few Clouds Few Clouds  
Wind Chill: 33°   Ceiling: Unl
Heat Index: 41°   Visibility: 10mi
Dew Point: 28°   Wind: 15mph
Humidity: 60%   Direction: 300°WNW
Pressure: 29.8"   Gusts: NA
Location:  41.54°N, 71.25°W
Report Text: KUUU 181753Z AUTO 30013KT 10SM FEW033 05/M02 A2980 RMK AO2 PK WND 29026/1710 SLP090 T00501022 10061 20022 58010
Loading
Personal Weather Stations






























Interactive Weather Map New forecast layout! Learn more

10-Day Weather Forecast

Advertisements
Track Severe Weather on mobile